sensor_id;sensor_type;location;lat;lon;timestamp;temperature;humidity
40738;DHT22;54759;48.094;-1.628;2022-09-01T00:02:01;24.60;57.90
40738;DHT22;54759;48.094;-1.628;2022-09-01T00:05:09;24.90;58.10
40738;DHT22;54759;48.094;-1.628;2022-09-01T00:08:10;24.90;58.10
40738;DHT22;54759;48.094;-1.628;2022-09-01T00:11:19;24.70;58.00
40738;DHT22;54759;48.094;-1.628;2022-09-01T00:14:22;24.50;58.00
40738;DHT22;54759;48.094;-1.628;2022-09-01T00:17:31;25.00;58.20
40738;DHT22;54759;48.094;-1.628;2022-09-01T00:20:34;24.60;58.00
40738;DHT22;54759;48.094;-1.628;2022-09-01T00:23:36;24.80;58.20
40738;DHT22;54759;48.094;-1.628;2022-09-01T00:26:38;24.60;58.10
40738;DHT22;54759;48.094;-1.628;2022-09-01T00:29:39;24.80;58.20
40738;DHT22;54759;48.094;-1.628;2022-09-01T00:32:44;24.70;58.10
40738;DHT22;54759;48.094;-1.628;2022-09-01T00:35:47;24.60;58.10
40738;DHT22;54759;48.094;-1.628;2022-09-01T00:38:48;24.50;58.10
40738;DHT22;54759;48.094;-1.628;2022-09-01T00:41:50;24.90;58.40
40738;DHT22;54759;48.094;-1.628;2022-09-01T00:44:51;24.60;58.20
40738;DHT22;54759;48.094;-1.628;2022-09-01T00:47:53;24.80;58.40
40738;DHT22;54759;48.094;-1.628;2022-09-01T00:50:55;24.50;58.20
40738;DHT22;54759;48.094;-1.628;2022-09-01T00:53:56;24.90;58.40
40738;DHT22;54759;48.094;-1.628;2022-09-01T00:56:58;24.60;58.30
40738;DHT22;54759;48.094;-1.628;2022-09-01T01:00:05;24.50;58.30
40738;DHT22;54759;48.094;-1.628;2022-09-01T01:03:07;24.60;58.30
40738;DHT22;54759;48.094;-1.628;2022-09-01T01:06:10;24.50;58.30
40738;DHT22;54759;48.094;-1.628;2022-09-01T01:09:13;24.50;58.40
40738;DHT22;54759;48.094;-1.628;2022-09-01T01:12:14;24.80;58.60
40738;DHT22;54759;48.094;-1.628;2022-09-01T01:15:18;24.40;58.30
40738;DHT22;54759;48.094;-1.628;2022-09-01T01:18:23;24.90;58.60
40738;DHT22;54759;48.094;-1.628;2022-09-01T01:21:28;24.60;58.40
40738;DHT22;54759;48.094;-1.628;2022-09-01T01:24:47;24.80;58.50
40738;DHT22;54759;48.094;-1.628;2022-09-01T01:27:48;24.50;58.40
40738;DHT22;54759;48.094;-1.628;2022-09-01T01:30:53;24.70;58.50
40738;DHT22;54759;48.094;-1.628;2022-09-01T01:33:55;24.80;58.60
40738;DHT22;54759;48.094;-1.628;2022-09-01T01:36:57;24.80;58.70
40738;DHT22;54759;48.094;-1.628;2022-09-01T01:40:02;25.20;58.90
40738;DHT22;54759;48.094;-1.628;2022-09-01T01:43:04;24.50;58.50
40738;DHT22;54759;48.094;-1.628;2022-09-01T01:46:06;24.70;58.80
40738;DHT22;54759;48.094;-1.628;2022-09-01T01:49:11;25.00;58.80
40738;DHT22;54759;48.094;-1.628;2022-09-01T01:52:16;24.70;58.70
40738;DHT22;54759;48.094;-1.628;2022-09-01T01:55:20;24.50;58.60
40738;DHT22;54759;48.094;-1.628;2022-09-01T01:58:23;24.70;58.70
40738;DHT22;54759;48.094;-1.628;2022-09-01T02:01:29;24.60;58.70
40738;DHT22;54759;48.094;-1.628;2022-09-01T02:04:32;24.70;58.80
40738;DHT22;54759;48.094;-1.628;2022-09-01T02:07:40;24.80;58.80
40738;DHT22;54759;48.094;-1.628;2022-09-01T02:10:44;24.60;58.80
40738;DHT22;54759;48.094;-1.628;2022-09-01T02:13:46;24.60;58.70
40738;DHT22;54759;48.094;-1.628;2022-09-01T02:16:49;24.50;58.70
40738;DHT22;54759;48.094;-1.628;2022-09-01T02:19:51;24.80;58.90
40738;DHT22;54759;48.094;-1.628;2022-09-01T02:22:56;24.50;58.80
40738;DHT22;54759;48.094;-1.628;2022-09-01T02:25:58;24.70;58.90
40738;DHT22;54759;48.094;-1.628;2022-09-01T02:29:21;24.50;58.80
40738;DHT22;54759;48.094;-1.628;2022-09-01T02:32:26;24.80;59.00
40738;DHT22;54759;48.094;-1.628;2022-09-01T02:35:28;24.80;59.00
40738;DHT22;54759;48.094;-1.628;2022-09-01T02:38:33;24.60;58.90
40738;DHT22;54759;48.094;-1.628;2022-09-01T02:41:35;24.30;58.80
40738;DHT22;54759;48.094;-1.628;2022-09-01T02:44:36;24.60;58.90
40738;DHT22;54759;48.094;-1.628;2022-09-01T02:47:42;24.40;58.90
40738;DHT22;54759;48.094;-1.628;2022-09-01T02:50:48;24.60;58.90
40738;DHT22;54759;48.094;-1.628;2022-09-01T02:53:50;24.60;59.00
40738;DHT22;54759;48.094;-1.628;2022-09-01T02:56:53;24.80;59.20
40738;DHT22;54759;48.094;-1.628;2022-09-01T02:59:56;24.40;58.90
40738;DHT22;54759;48.094;-1.628;2022-09-01T03:03:00;24.50;59.00
40738;DHT22;54759;48.094;-1.628;2022-09-01T03:06:01;24.70;59.10
40738;DHT22;54759;48.094;-1.628;2022-09-01T03:09:05;24.70;59.10
40738;DHT22;54759;48.094;-1.628;2022-09-01T03:12:09;24.40;59.00
40738;DHT22;54759;48.094;-1.628;2022-09-01T03:15:10;24.80;59.20
40738;DHT22;54759;48.094;-1.628;2022-09-01T03:18:14;24.40;59.00
40738;DHT22;54759;48.094;-1.628;2022-09-01T03:21:19;24.30;58.90
40738;DHT22;54759;48.094;-1.628;2022-09-01T03:24:20;24.50;59.10
40738;DHT22;54759;48.094;-1.628;2022-09-01T03:27:23;24.50;59.10
40738;DHT22;54759;48.094;-1.628;2022-09-01T03:30:24;24.40;59.00
40738;DHT22;54759;48.094;-1.628;2022-09-01T03:33:27;24.70;59.20
40738;DHT22;54759;48.094;-1.628;2022-09-01T03:36:30;24.60;59.20
40738;DHT22;54759;48.094;-1.628;2022-09-01T03:39:33;24.30;59.00
40738;DHT22;54759;48.094;-1.628;2022-09-01T03:42:36;24.30;59.10
40738;DHT22;54759;48.094;-1.628;2022-09-01T03:45:39;24.60;59.20
40738;DHT22;54759;48.094;-1.628;2022-09-01T03:48:41;24.30;59.10
40738;DHT22;54759;48.094;-1.628;2022-09-01T03:51:43;24.60;59.20
40738;DHT22;54759;48.094;-1.628;2022-09-01T03:54:45;24.20;59.00
40738;DHT22;54759;48.094;-1.628;2022-09-01T03:57:51;24.80;59.30
40738;DHT22;54759;48.094;-1.628;2022-09-01T04:00:55;24.30;59.10
40738;DHT22;54759;48.094;-1.628;2022-09-01T04:03:58;24.20;59.10
40738;DHT22;54759;48.094;-1.628;2022-09-01T04:07:04;24.30;59.20
40738;DHT22;54759;48.094;-1.628;2022-09-01T04:10:08;24.50;59.40
40738;DHT22;54759;48.094;-1.628;2022-09-01T04:13:12;24.20;59.20
40738;DHT22;54759;48.094;-1.628;2022-09-01T04:16:16;24.40;59.30
40738;DHT22;54759;48.094;-1.628;2022-09-01T04:19:40;24.20;59.20
40738;DHT22;54759;48.094;-1.628;2022-09-01T04:22:44;24.20;59.20
40738;DHT22;54759;48.094;-1.628;2022-09-01T04:25:47;24.10;59.20
40738;DHT22;54759;48.094;-1.628;2022-09-01T04:28:51;24.40;59.30
40738;DHT22;54759;48.094;-1.628;2022-09-01T04:31:54;24.20;59.20
40738;DHT22;54759;48.094;-1.628;2022-09-01T04:35:03;24.40;59.30
40738;DHT22;54759;48.094;-1.628;2022-09-01T04:38:05;24.50;59.40
40738;DHT22;54759;48.094;-1.628;2022-09-01T04:41:08;24.30;59.30
40738;DHT22;54759;48.094;-1.628;2022-09-01T04:44:10;24.20;59.30
40738;DHT22;54759;48.094;-1.628;2022-09-01T04:47:13;24.30;59.30
40738;DHT22;54759;48.094;-1.628;2022-09-01T04:50:18;24.10;59.20
40738;DHT22;54759;48.094;-1.628;2022-09-01T04:53:38;24.60;59.50
40738;DHT22;54759;48.094;-1.628;2022-09-01T04:56:41;24.30;59.30
40738;DHT22;54759;48.094;-1.628;2022-09-01T04:59:47;24.50;59.50
40738;DHT22;54759;48.094;-1.628;2022-09-01T05:02:49;24.50;59.40
40738;DHT22;54759;48.094;-1.628;2022-09-01T05:05:54;24.20;59.30
40738;DHT22;54759;48.094;-1.628;2022-09-01T05:08:56;24.30;59.50
40738;DHT22;54759;48.094;-1.628;2022-09-01T05:12:13;24.10;59.30
40738;DHT22;54759;48.094;-1.628;2022-09-01T05:15:20;24.20;59.30
40738;DHT22;54759;48.094;-1.628;2022-09-01T05:18:22;24.50;59.50
40738;DHT22;54759;48.094;-1.628;2022-09-01T05:21:24;24.40;59.50
40738;DHT22;54759;48.094;-1.628;2022-09-01T05:24:32;24.30;59.40
40738;DHT22;54759;48.094;-1.628;2022-09-01T05:27:42;24.20;59.30
40738;DHT22;54759;48.094;-1.628;2022-09-01T05:30:51;24.30;59.40
40738;DHT22;54759;48.094;-1.628;2022-09-01T05:33:54;24.20;59.40
40738;DHT22;54759;48.094;-1.628;2022-09-01T05:37:01;24.30;59.40
40738;DHT22;54759;48.094;-1.628;2022-09-01T05:40:07;24.50;60.10
40738;DHT22;54759;48.094;-1.628;2022-09-01T05:43:13;24.40;59.50
40738;DHT22;54759;48.094;-1.628;2022-09-01T05:46:16;24.20;59.50
40738;DHT22;54759;48.094;-1.628;2022-09-01T05:49:22;24.20;59.30
40738;DHT22;54759;48.094;-1.628;2022-09-01T05:52:24;24.50;59.70
40738;DHT22;54759;48.094;-1.628;2022-09-01T05:55:27;24.50;59.60
40738;DHT22;54759;48.094;-1.628;2022-09-01T05:58:36;24.10;59.40
40738;DHT22;54759;48.094;-1.628;2022-09-01T06:01:59;24.30;59.50
40738;DHT22;54759;48.094;-1.628;2022-09-01T06:05:01;24.50;59.70
40738;DHT22;54759;48.094;-1.628;2022-09-01T06:08:06;23.90;59.30
40738;DHT22;54759;48.094;-1.628;2022-09-01T06:11:10;24.20;59.50
40738;DHT22;54759;48.094;-1.628;2022-09-01T06:14:16;24.30;59.50
40738;DHT22;54759;48.094;-1.628;2022-09-01T06:17:22;24.40;59.70
40738;DHT22;54759;48.094;-1.628;2022-09-01T06:20:25;24.50;59.60
40738;DHT22;54759;48.094;-1.628;2022-09-01T06:23:27;24.10;59.40
40738;DHT22;54759;48.094;-1.628;2022-09-01T06:26:29;24.00;59.30
40738;DHT22;54759;48.094;-1.628;2022-09-01T06:29:33;24.40;59.60
40738;DHT22;54759;48.094;-1.628;2022-09-01T06:32:35;24.30;59.50
40738;DHT22;54759;48.094;-1.628;2022-09-01T06:35:38;24.30;59.40
40738;DHT22;54759;48.094;-1.628;2022-09-01T06:38:42;24.00;59.30
40738;DHT22;54759;48.094;-1.628;2022-09-01T06:41:43;24.50;59.50
40738;DHT22;54759;48.094;-1.628;2022-09-01T06:44:47;24.50;59.50
40738;DHT22;54759;48.094;-1.628;2022-09-01T06:47:49;24.40;59.60
40738;DHT22;54759;48.094;-1.628;2022-09-01T06:51:00;24.30;59.50
40738;DHT22;54759;48.094;-1.628;2022-09-01T06:54:24;24.50;59.70
40738;DHT22;54759;48.094;-1.628;2022-09-01T06:57:29;24.50;59.50
40738;DHT22;54759;48.094;-1.628;2022-09-01T07:00:50;24.50;59.50
40738;DHT22;54759;48.094;-1.628;2022-09-01T07:03:54;24.40;59.40
40738;DHT22;54759;48.094;-1.628;2022-09-01T07:07:13;24.50;59.60
40738;DHT22;54759;48.094;-1.628;2022-09-01T07:10:49;24.10;59.20
40738;DHT22;54759;48.094;-1.628;2022-09-01T07:14:11;24.50;59.40
40738;DHT22;54759;48.094;-1.628;2022-09-01T07:17:16;24.70;59.50
40738;DHT22;54759;48.094;-1.628;2022-09-01T07:20:27;24.70;59.30
40738;DHT22;54759;48.094;-1.628;2022-09-01T07:23:30;24.60;59.10
40738;DHT22;54759;48.094;-1.628;2022-09-01T07:26:48;24.40;58.90
40738;DHT22;54759;48.094;-1.628;2022-09-01T07:29:51;24.70;58.90
40738;DHT22;54759;48.094;-1.628;2022-09-01T07:32:55;24.40;58.70
40738;DHT22;54759;48.094;-1.628;2022-09-01T07:36:18;24.90;58.90
40738;DHT22;54759;48.094;-1.628;2022-09-01T07:39:39;24.80;59.30
40738;DHT22;54759;48.094;-1.628;2022-09-01T07:43:14;24.50;58.50
40738;DHT22;54759;48.094;-1.628;2022-09-01T07:46:28;24.60;58.50
40738;DHT22;54759;48.094;-1.628;2022-09-01T07:49:43;24.70;58.60
40738;DHT22;54759;48.094;-1.628;2022-09-01T07:53:05;24.80;58.70
40738;DHT22;54759;48.094;-1.628;2022-09-01T07:56:08;24.90;58.80
40738;DHT22;54759;48.094;-1.628;2022-09-01T07:59:16;24.80;58.80
40738;DHT22;54759;48.094;-1.628;2022-09-01T08:02:30;24.80;58.70
40738;DHT22;54759;48.094;-1.628;2022-09-01T08:05:33;24.80;58.80
40738;DHT22;54759;48.094;-1.628;2022-09-01T08:08:36;24.90;58.70
40738;DHT22;54759;48.094;-1.628;2022-09-01T08:11:40;24.90;58.80
40738;DHT22;54759;48.094;-1.628;2022-09-01T08:15:03;24.90;59.30
40738;DHT22;54759;48.094;-1.628;2022-09-01T08:18:25;24.90;58.70
40738;DHT22;54759;48.094;-1.628;2022-09-01T08:21:26;24.90;59.20
40738;DHT22;54759;48.094;-1.628;2022-09-01T08:24:36;24.60;58.50
40738;DHT22;54759;48.094;-1.628;2022-09-01T08:27:38;25.00;58.90
40738;DHT22;54759;48.094;-1.628;2022-09-01T08:30:40;25.00;58.90
40738;DHT22;54759;48.094;-1.628;2022-09-01T08:33:56;25.00;58.70
40738;DHT22;54759;48.094;-1.628;2022-09-01T08:36:58;25.00;58.70
40738;DHT22;54759;48.094;-1.628;2022-09-01T08:40:02;25.20;58.70
40738;DHT22;54759;48.094;-1.628;2022-09-01T08:43:08;25.00;58.50
40738;DHT22;54759;48.094;-1.628;2022-09-01T08:46:18;24.90;58.50
40738;DHT22;54759;48.094;-1.628;2022-09-01T08:49:23;25.00;58.50
40738;DHT22;54759;48.094;-1.628;2022-09-01T08:52:39;25.10;58.50
40738;DHT22;54759;48.094;-1.628;2022-09-01T08:55:44;25.10;58.50
40738;DHT22;54759;48.094;-1.628;2022-09-01T08:58:48;25.20;58.50
40738;DHT22;54759;48.094;-1.628;2022-09-01T09:02:14;25.10;58.60
40738;DHT22;54759;48.094;-1.628;2022-09-01T09:05:22;25.20;58.60
40738;DHT22;54759;48.094;-1.628;2022-09-01T09:08:30;25.10;58.60
40738;DHT22;54759;48.094;-1.628;2022-09-01T09:14:51;25.00;58.30
40738;DHT22;54759;48.094;-1.628;2022-09-01T09:17:57;25.30;58.40
40738;DHT22;54759;48.094;-1.628;2022-09-01T09:21:01;25.20;58.40
40738;DHT22;54759;48.094;-1.628;2022-09-01T09:24:09;25.30;58.30
40738;DHT22;54759;48.094;-1.628;2022-09-01T09:27:10;25.00;58.10
40738;DHT22;54759;48.094;-1.628;2022-09-01T09:30:19;25.30;58.40
40738;DHT22;54759;48.094;-1.628;2022-09-01T09:33:32;25.20;58.20
40738;DHT22;54759;48.094;-1.628;2022-09-01T09:36:54;25.40;58.30
40738;DHT22;54759;48.094;-1.628;2022-09-01T09:40:02;25.30;58.30
40738;DHT22;54759;48.094;-1.628;2022-09-01T09:43:05;25.20;58.10
40738;DHT22;54759;48.094;-1.628;2022-09-01T09:49:30;25.60;58.30
40738;DHT22;54759;48.094;-1.628;2022-09-01T09:52:38;25.40;58.30
40738;DHT22;54759;48.094;-1.628;2022-09-01T09:55:51;25.40;58.30
40738;DHT22;54759;48.094;-1.628;2022-09-01T09:58:56;25.40;58.30
40738;DHT22;54759;48.094;-1.628;2022-09-01T10:01:58;25.40;58.10
40738;DHT22;54759;48.094;-1.628;2022-09-01T10:05:01;25.50;58.20
40738;DHT22;54759;48.094;-1.628;2022-09-01T10:08:35;25.60;58.20
40738;DHT22;54759;48.094;-1.628;2022-09-01T10:11:38;25.60;58.20
40738;DHT22;54759;48.094;-1.628;2022-09-01T10:14:44;25.70;58.20
40738;DHT22;54759;48.094;-1.628;2022-09-01T10:17:54;25.60;58.10
40738;DHT22;54759;48.094;-1.628;2022-09-01T10:21:20;25.70;58.20
40738;DHT22;54759;48.094;-1.628;2022-09-01T10:24:27;25.60;58.10
40738;DHT22;54759;48.094;-1.628;2022-09-01T10:27:32;25.70;58.10
40738;DHT22;54759;48.094;-1.628;2022-09-01T10:30:35;25.60;58.70
40738;DHT22;54759;48.094;-1.628;2022-09-01T10:33:37;25.60;58.00
40738;DHT22;54759;48.094;-1.628;2022-09-01T10:36:42;25.80;58.20
40738;DHT22;54759;48.094;-1.628;2022-09-01T10:53:05;25.60;58.20
40738;DHT22;54759;48.094;-1.628;2022-09-01T10:56:07;25.60;58.30
40738;DHT22;54759;48.094;-1.628;2022-09-01T10:59:24;25.60;58.30
40738;DHT22;54759;48.094;-1.628;2022-09-01T11:02:41;25.60;58.40
40738;DHT22;54759;48.094;-1.628;2022-09-01T11:09:18;25.60;58.50
40738;DHT22;54759;48.094;-1.628;2022-09-01T11:12:29;25.60;58.60
40738;DHT22;54759;48.094;-1.628;2022-09-01T11:15:38;25.50;58.50
40738;DHT22;54759;48.094;-1.628;2022-09-01T11:18:41;25.60;58.60
40738;DHT22;54759;48.094;-1.628;2022-09-01T11:21:43;25.50;58.60
40738;DHT22;54759;48.094;-1.628;2022-09-01T11:24:50;25.50;58.60
40738;DHT22;54759;48.094;-1.628;2022-09-01T11:28:04;25.50;58.60
40738;DHT22;54759;48.094;-1.628;2022-09-01T11:31:12;25.40;58.60
40738;DHT22;54759;48.094;-1.628;2022-09-01T11:34:15;25.40;58.60
40738;DHT22;54759;48.094;-1.628;2022-09-01T11:37:20;25.50;58.70
40738;DHT22;54759;48.094;-1.628;2022-09-01T11:40:23;25.70;59.00
40738;DHT22;54759;48.094;-1.628;2022-09-01T11:43:31;25.20;58.50
40738;DHT22;54759;48.094;-1.628;2022-09-01T11:46:33;25.50;58.80
40738;DHT22;54759;48.094;-1.628;2022-09-01T11:49:36;25.50;58.80
40738;DHT22;54759;48.094;-1.628;2022-09-01T11:52:39;25.50;58.70
40738;DHT22;54759;48.094;-1.628;2022-09-01T11:55:42;25.40;58.50
40738;DHT22;54759;48.094;-1.628;2022-09-01T11:58:44;25.60;58.60
40738;DHT22;54759;48.094;-1.628;2022-09-01T12:01:46;25.60;58.70
40738;DHT22;54759;48.094;-1.628;2022-09-01T12:04:48;25.60;58.50
40738;DHT22;54759;48.094;-1.628;2022-09-01T12:07:50;25.60;58.60
40738;DHT22;54759;48.094;-1.628;2022-09-01T12:11:00;25.70;58.50
40738;DHT22;54759;48.094;-1.628;2022-09-01T12:14:03;25.70;58.50
40738;DHT22;54759;48.094;-1.628;2022-09-01T12:17:11;25.70;58.60
40738;DHT22;54759;48.094;-1.628;2022-09-01T12:20:22;25.80;58.50
40738;DHT22;54759;48.094;-1.628;2022-09-01T12:23:30;25.70;58.50
40738;DHT22;54759;48.094;-1.628;2022-09-01T12:26:33;25.70;58.40
40738;DHT22;54759;48.094;-1.628;2022-09-01T12:29:36;25.90;58.90
40738;DHT22;54759;48.094;-1.628;2022-09-01T12:32:38;26.10;59.10
40738;DHT22;54759;48.094;-1.628;2022-09-01T12:35:40;26.00;58.60
40738;DHT22;54759;48.094;-1.628;2022-09-01T12:38:42;25.50;58.60
40738;DHT22;54759;48.094;-1.628;2022-09-01T12:41:44;26.00;58.90
40738;DHT22;54759;48.094;-1.628;2022-09-01T12:44:47;26.00;58.80
40738;DHT22;54759;48.094;-1.628;2022-09-01T12:47:51;25.80;58.60
40738;DHT22;54759;48.094;-1.628;2022-09-01T12:50:52;26.20;58.90
40738;DHT22;54759;48.094;-1.628;2022-09-01T12:53:55;26.00;58.70
40738;DHT22;54759;48.094;-1.628;2022-09-01T12:56:59;26.00;58.60
40738;DHT22;54759;48.094;-1.628;2022-09-01T13:00:05;26.10;58.70
40738;DHT22;54759;48.094;-1.628;2022-09-01T13:03:10;25.80;58.50
40738;DHT22;54759;48.094;-1.628;2022-09-01T13:06:14;26.10;58.80
40738;DHT22;54759;48.094;-1.628;2022-09-01T13:09:15;26.00;58.70
40738;DHT22;54759;48.094;-1.628;2022-09-01T13:12:19;26.20;58.90
40738;DHT22;54759;48.094;-1.628;2022-09-01T13:15:21;26.10;58.80
40738;DHT22;54759;48.094;-1.628;2022-09-01T13:18:23;26.10;58.30
40738;DHT22;54759;48.094;-1.628;2022-09-01T13:21:25;26.00;58.60
40738;DHT22;54759;48.094;-1.628;2022-09-01T13:24:28;26.00;58.60
40738;DHT22;54759;48.094;-1.628;2022-09-01T13:27:33;26.30;58.80
40738;DHT22;54759;48.094;-1.628;2022-09-01T13:30:34;26.20;58.70
40738;DHT22;54759;48.094;-1.628;2022-09-01T13:33:35;25.80;58.40
40738;DHT22;54759;48.094;-1.628;2022-09-01T13:36:57;26.20;58.80
40738;DHT22;54759;48.094;-1.628;2022-09-01T13:39:58;25.80;58.30
40738;DHT22;54759;48.094;-1.628;2022-09-01T13:43:00;26.30;58.70
40738;DHT22;54759;48.094;-1.628;2022-09-01T13:46:04;26.10;58.50
40738;DHT22;54759;48.094;-1.628;2022-09-01T13:49:06;26.20;58.60
40738;DHT22;54759;48.094;-1.628;2022-09-01T13:52:27;26.30;58.60
40738;DHT22;54759;48.094;-1.628;2022-09-01T13:55:30;26.20;58.70
40738;DHT22;54759;48.094;-1.628;2022-09-01T13:58:32;26.10;58.60
40738;DHT22;54759;48.094;-1.628;2022-09-01T14:01:34;26.00;58.50
40738;DHT22;54759;48.094;-1.628;2022-09-01T14:04:35;25.80;58.50
40738;DHT22;54759;48.094;-1.628;2022-09-01T14:07:37;26.30;58.90
40738;DHT22;54759;48.094;-1.628;2022-09-01T14:10:40;26.20;58.70
40738;DHT22;54759;48.094;-1.628;2022-09-01T14:13:43;26.20;58.70
40738;DHT22;54759;48.094;-1.628;2022-09-01T14:16:45;26.10;58.60
40738;DHT22;54759;48.094;-1.628;2022-09-01T14:19:48;26.60;59.00
40738;DHT22;54759;48.094;-1.628;2022-09-01T14:22:49;26.20;58.90
40738;DHT22;54759;48.094;-1.628;2022-09-01T14:25:51;26.00;58.60
40738;DHT22;54759;48.094;-1.628;2022-09-01T14:28:54;26.00;58.50
40738;DHT22;54759;48.094;-1.628;2022-09-01T14:31:56;26.00;58.40
40738;DHT22;54759;48.094;-1.628;2022-09-01T14:34:57;26.30;58.70
40738;DHT22;54759;48.094;-1.628;2022-09-01T14:38:00;26.10;58.60
40738;DHT22;54759;48.094;-1.628;2022-09-01T14:41:02;26.30;58.60
40738;DHT22;54759;48.094;-1.628;2022-09-01T14:44:04;26.10;58.40
40738;DHT22;54759;48.094;-1.628;2022-09-01T14:47:06;25.90;58.10
40738;DHT22;54759;48.094;-1.628;2022-09-01T14:50:13;26.30;58.40
40738;DHT22;54759;48.094;-1.628;2022-09-01T14:53:19;26.30;58.40
40738;DHT22;54759;48.094;-1.628;2022-09-01T14:56:21;26.10;58.50
40738;DHT22;54759;48.094;-1.628;2022-09-01T14:59:23;26.40;58.50
40738;DHT22;54759;48.094;-1.628;2022-09-01T15:02:25;26.30;58.40
40738;DHT22;54759;48.094;-1.628;2022-09-01T15:05:28;26.10;58.30
40738;DHT22;54759;48.094;-1.628;2022-09-01T15:08:39;26.10;58.30
40738;DHT22;54759;48.094;-1.628;2022-09-01T15:11:41;26.60;58.60
40738;DHT22;54759;48.094;-1.628;2022-09-01T15:14:46;26.00;58.90
40738;DHT22;54759;48.094;-1.628;2022-09-01T15:17:48;26.00;58.20
40738;DHT22;54759;48.094;-1.628;2022-09-01T15:20:49;26.20;58.40
40738;DHT22;54759;48.094;-1.628;2022-09-01T15:23:51;26.30;58.70
40738;DHT22;54759;48.094;-1.628;2022-09-01T15:26:54;26.30;58.50
40738;DHT22;54759;48.094;-1.628;2022-09-01T15:29:57;26.20;58.30
40738;DHT22;54759;48.094;-1.628;2022-09-01T15:32:58;26.30;58.30
40738;DHT22;54759;48.094;-1.628;2022-09-01T15:35:59;26.20;58.30
40738;DHT22;54759;48.094;-1.628;2022-09-01T15:39:01;26.20;58.30
40738;DHT22;54759;48.094;-1.628;2022-09-01T15:42:03;26.40;58.50
40738;DHT22;54759;48.094;-1.628;2022-09-01T15:45:07;26.30;58.50
40738;DHT22;54759;48.094;-1.628;2022-09-01T15:48:08;26.00;59.00
40738;DHT22;54759;48.094;-1.628;2022-09-01T15:51:26;26.00;58.40
40738;DHT22;54759;48.094;-1.628;2022-09-01T15:54:31;26.30;58.70
40738;DHT22;54759;48.094;-1.628;2022-09-01T15:57:37;26.10;58.80
40738;DHT22;54759;48.094;-1.628;2022-09-01T16:00:41;26.20;58.90
40738;DHT22;54759;48.094;-1.628;2022-09-01T16:03:43;25.90;58.70
40738;DHT22;54759;48.094;-1.628;2022-09-01T16:06:45;26.10;58.80
40738;DHT22;54759;48.094;-1.628;2022-09-01T16:09:48;25.70;58.60
40738;DHT22;54759;48.094;-1.628;2022-09-01T16:12:49;26.10;58.90
40738;DHT22;54759;48.094;-1.628;2022-09-01T16:15:54;25.60;58.60
40738;DHT22;54759;48.094;-1.628;2022-09-01T16:19:03;25.80;58.60
40738;DHT22;54759;48.094;-1.628;2022-09-01T16:22:09;25.80;58.80
40738;DHT22;54759;48.094;-1.628;2022-09-01T16:25:12;26.10;58.90
40738;DHT22;54759;48.094;-1.628;2022-09-01T16:28:21;25.80;58.80
40738;DHT22;54759;48.094;-1.628;2022-09-01T16:31:25;26.00;59.00
40738;DHT22;54759;48.094;-1.628;2022-09-01T16:34:28;25.90;58.90
40738;DHT22;54759;48.094;-1.628;2022-09-01T16:37:35;26.00;59.00
40738;DHT22;54759;48.094;-1.628;2022-09-01T16:40:42;26.10;59.10
40738;DHT22;54759;48.094;-1.628;2022-09-01T16:43:47;25.60;58.80
40738;DHT22;54759;48.094;-1.628;2022-09-01T16:46:55;25.50;58.80
40738;DHT22;54759;48.094;-1.628;2022-09-01T16:50:01;25.80;59.00
40738;DHT22;54759;48.094;-1.628;2022-09-01T16:53:09;25.90;59.70
40738;DHT22;54759;48.094;-1.628;2022-09-01T16:56:12;25.80;59.10
40738;DHT22;54759;48.094;-1.628;2022-09-01T16:59:16;25.80;59.20
40738;DHT22;54759;48.094;-1.628;2022-09-01T17:02:28;26.00;59.30
40738;DHT22;54759;48.094;-1.628;2022-09-01T17:05:33;25.50;59.10
40738;DHT22;54759;48.094;-1.628;2022-09-01T17:08:39;25.80;59.30
40738;DHT22;54759;48.094;-1.628;2022-09-01T17:11:45;25.60;59.20
40738;DHT22;54759;48.094;-1.628;2022-09-01T17:14:51;25.90;59.50
40738;DHT22;54759;48.094;-1.628;2022-09-01T17:17:57;25.50;59.30
40738;DHT22;54759;48.094;-1.628;2022-09-01T17:21:08;25.70;59.40
40738;DHT22;54759;48.094;-1.628;2022-09-01T17:24:18;25.70;59.40
40738;DHT22;54759;48.094;-1.628;2022-09-01T17:27:24;25.30;59.30
40738;DHT22;54759;48.094;-1.628;2022-09-01T17:30:26;25.40;59.50
40738;DHT22;54759;48.094;-1.628;2022-09-01T17:33:33;25.70;59.70
40738;DHT22;54759;48.094;-1.628;2022-09-01T17:36:40;25.40;59.60
40738;DHT22;54759;48.094;-1.628;2022-09-01T17:39:48;25.50;59.70
40738;DHT22;54759;48.094;-1.628;2022-09-01T17:42:55;25.50;59.80
40738;DHT22;54759;48.094;-1.628;2022-09-01T17:46:02;25.60;59.90
40738;DHT22;54759;48.094;-1.628;2022-09-01T17:49:08;25.30;59.70
40738;DHT22;54759;48.094;-1.628;2022-09-01T17:52:11;25.10;59.70
40738;DHT22;54759;48.094;-1.628;2022-09-01T17:55:17;25.30;59.80
40738;DHT22;54759;48.094;-1.628;2022-09-01T17:58:26;25.90;60.30
40738;DHT22;54759;48.094;-1.628;2022-09-01T18:01:33;25.40;60.00
40738;DHT22;54759;48.094;-1.628;2022-09-01T18:04:41;25.50;60.10
40738;DHT22;54759;48.094;-1.628;2022-09-01T18:07:51;25.30;60.00
40738;DHT22;54759;48.094;-1.628;2022-09-01T18:10:56;24.80;59.70
40738;DHT22;54759;48.094;-1.628;2022-09-01T18:14:00;25.30;60.10
40738;DHT22;54759;48.094;-1.628;2022-09-01T18:17:03;24.90;59.90
40738;DHT22;54759;48.094;-1.628;2022-09-01T18:20:11;25.30;60.20
40738;DHT22;54759;48.094;-1.628;2022-09-01T18:23:17;25.50;60.30
40738;DHT22;54759;48.094;-1.628;2022-09-01T18:26:22;24.90;60.00
40738;DHT22;54759;48.094;-1.628;2022-09-01T18:29:24;25.50;60.40
40738;DHT22;54759;48.094;-1.628;2022-09-01T18:32:32;25.30;60.40
40738;DHT22;54759;48.094;-1.628;2022-09-01T18:35:40;24.90;60.10
40738;DHT22;54759;48.094;-1.628;2022-09-01T18:38:46;25.30;60.40
40738;DHT22;54759;48.094;-1.628;2022-09-01T18:41:54;25.30;60.30
40738;DHT22;54759;48.094;-1.628;2022-09-01T18:45:00;25.20;61.00
40738;DHT22;54759;48.094;-1.628;2022-09-01T18:48:07;24.90;60.30
40738;DHT22;54759;48.094;-1.628;2022-09-01T18:51:13;25.10;60.40
40738;DHT22;54759;48.094;-1.628;2022-09-01T18:54:17;24.80;60.40
40738;DHT22;54759;48.094;-1.628;2022-09-01T18:57:27;25.00;60.40
40738;DHT22;54759;48.094;-1.628;2022-09-01T19:00:32;24.90;60.30
40738;DHT22;54759;48.094;-1.628;2022-09-01T19:03:35;24.70;60.30
40738;DHT22;54759;48.094;-1.628;2022-09-01T19:06:43;24.90;60.50
40738;DHT22;54759;48.094;-1.628;2022-09-01T19:09:47;24.70;60.40
40738;DHT22;54759;48.094;-1.628;2022-09-01T19:12:52;24.80;60.50
40738;DHT22;54759;48.094;-1.628;2022-09-01T19:16:00;25.40;60.90
40738;DHT22;54759;48.094;-1.628;2022-09-01T19:19:09;25.30;60.80
40738;DHT22;54759;48.094;-1.628;2022-09-01T19:22:14;25.10;60.80
40738;DHT22;54759;48.094;-1.628;2022-09-01T19:25:20;25.30;60.90
40738;DHT22;54759;48.094;-1.628;2022-09-01T19:28:38;24.90;60.60
40738;DHT22;54759;48.094;-1.628;2022-09-01T19:31:42;25.10;60.80
40738;DHT22;54759;48.094;-1.628;2022-09-01T19:34:45;24.90;60.50
40738;DHT22;54759;48.094;-1.628;2022-09-01T19:37:49;25.40;61.00